Time;durP1;ratioP1;P1;durP2;ratioP2;P2;SDS_P1;SDS_P2;PMS_P1;PMS_P2;Temp;Humidity;BMP_temperature;BMP_pressure;BME280_temperature;BME280_humidity;BME280_pressure;Samples;Min_cycle;Max_cycle;Signal;HPM_P1;HPM_P2
2022/12/19 00:00:45;;;;;;;;;;;;;;;19.56;36.63;102322.53;5045036;28;4085;-58
2022/12/19 00:03:12;;;;;;;;;;;;;;;19.57;36.65;102332.66;5031218;28;4230;-59
2022/12/19 00:05:38;;;;;;;;;;;;;;;19.56;36.82;102342.66;5047536;28;4458;-58
2022/12/19 00:08:05;;;;;;;;;;;;;;;19.56;36.67;102328.28;5040648;28;4478;-58
2022/12/19 00:10:42;;;;;;;;;;;;;;;19.58;36.63;102325.53;5048760;28;4074;-58
2022/12/19 00:13:09;;;;;;;;;;;;;;;19.58;36.88;102324.78;5038764;28;4310;-59
2022/12/19 00:15:35;;;;;;;;;;;;;;;19.59;36.88;102315.56;5041430;28;4200;-58
2022/12/19 00:18:01;;;;;;;;;;;;;;;19.60;36.74;102299.06;5049386;28;4065;-58
2022/12/19 00:20:28;;;;;;;;;;;;;;;19.60;36.87;102304.81;5051352;28;4104;-59
2022/12/19 00:22:54;;;;;;;;;;;;;;;19.59;36.85;102309.81;5028067;28;4012;-59
2022/12/19 00:25:20;;;;;;;;;;;;;;;19.58;36.82;102293.94;5027658;28;4026;-58
2022/12/19 00:27:47;;;;;;;;;;;;;;;19.59;36.96;102301.19;5019572;28;4144;-58
2022/12/19 00:30:13;;;;;;;;;;;;;;;19.58;36.86;102296.06;5006875;28;4240;-57
2022/12/19 00:32:40;;;;;;;;;;;;;;;19.57;36.90;102283.81;5012112;28;4136;-58
2022/12/19 00:35:06;;;;;;;;;;;;;;;19.56;36.92;102285.19;5023793;28;4165;-58
2022/12/19 00:37:32;;;;;;;;;;;;;;;19.57;37.16;102274.44;5014355;28;4321;-58
2022/12/19 00:39:59;;;;;;;;;;;;;;;19.57;36.99;102271.56;5014355;28;5206;-58
2022/12/19 00:42:25;;;;;;;;;;;;;;;19.57;36.96;102257.19;5017376;28;4156;-58
2022/12/19 00:44:51;;;;;;;;;;;;;;;19.58;36.94;102255.81;5011130;28;4220;-58
2022/12/19 00:47:18;;;;;;;;;;;;;;;19.57;36.95;102260.81;5025919;28;4064;-58
2022/12/19 00:49:44;;;;;;;;;;;;;;;19.58;37.02;102261.56;5025214;28;4166;-58
2022/12/19 00:52:15;;;;;;;;;;;;;;;19.57;37.04;102260.81;5024086;28;3925;-58
2022/12/19 00:54:41;;;;;;;;;;;;;;;19.57;37.05;102243.56;5020883;28;4146;-58
2022/12/19 00:57:08;;;;;;;;;;;;;;;19.56;37.01;102259.31;5030454;28;4074;-58
2022/12/19 00:59:34;;;;;;;;;;;;;;;19.55;37.04;102257.78;5020007;28;5203;-58
2022/12/19 01:02:00;;;;;;;;;;;;;;;19.55;37.05;102237.69;5010620;28;3980;-58
2022/12/19 01:04:28;;;;;;;;;;;;;;;19.55;36.99;102229.06;5026984;28;4222;-59
2022/12/19 01:06:57;;;;;;;;;;;;;;;19.55;37.10;102240.56;5011908;28;4201;-58
2022/12/19 01:09:29;;;;;;;;;;;;;;;19.55;36.98;102231.94;5013555;28;4264;-58
2022/12/19 01:14:41;;;;;;;;;;;;;;;19.57;37.06;102226.34;5017759;28;4324;-58
2022/12/19 01:17:07;;;;;;;;;;;;;;;19.59;37.16;102225.75;5017893;28;4201;-58
2022/12/19 01:19:33;;;;;;;;;;;;;;;19.58;37.15;102207.72;5029318;28;4091;-58
2022/12/19 01:22:07;;;;;;;;;;;;;;;19.58;37.15;102193.34;5029520;28;4361;-59
2022/12/19 01:24:34;;;;;;;;;;;;;;;19.57;37.18;102197.59;5047830;28;4181;-58
2022/12/19 01:27:00;;;;;;;;;;;;;;;19.57;37.10;102206.22;5039563;28;4075;-59
2022/12/19 01:29:26;;;;;;;;;;;;;;;19.58;37.15;102198.34;5039695;28;4160;-59
2022/12/19 01:31:53;;;;;;;;;;;;;;;19.57;37.18;102197.59;5033461;28;4186;-59
2022/12/19 01:34:19;;;;;;;;;;;;;;;19.55;37.35;102203.19;5027936;28;4012;-58
2022/12/19 01:36:45;;;;;;;;;;;;;;;19.58;37.39;102198.34;5037325;28;4156;-58
2022/12/19 01:39:12;;;;;;;;;;;;;;;19.59;37.32;102177.63;5038866;28;4145;-57
2022/12/19 01:41:38;;;;;;;;;;;;;;;19.59;37.32;102194.88;5050569;28;4166;-58
2022/12/19 01:44:06;;;;;;;;;;;;;;;19.60;37.36;102182.00;5043747;28;4208;-59
2022/12/19 01:46:46;;;;;;;;;;;;;;;19.60;37.40;102181.25;5031284;28;4223;-58
2022/12/19 01:49:20;;;;;;;;;;;;;;;19.59;37.33;102171.16;5046802;28;5166;-59
2022/12/19 01:51:50;;;;;;;;;;;;;;;19.58;37.29;102170.38;5045809;28;4156;-58
2022/12/19 01:54:18;;;;;;;;;;;;;;;19.57;37.33;102166.00;5046590;28;4407;-58
2022/12/19 01:56:46;;;;;;;;;;;;;;;19.57;37.43;102159.50;5044703;28;5840;-58
2022/12/19 01:59:13;;;;;;;;;;;;;;;19.56;37.31;102155.88;5023040;28;5290;-57
2022/12/19 02:01:40;;;;;;;;;;;;;;;19.57;37.34;102145.88;5024955;28;4031;-58
2022/12/19 02:04:23;;;;;;;;;;;;;;;19.57;37.42;102151.63;5037103;28;5172;-58
2022/12/19 02:06:50;;;;;;;;;;;;;;;19.58;37.38;102147.38;5013127;28;4157;-59
2022/12/19 02:09:22;;;;;;;;;;;;;;;19.58;37.43;102141.63;5018187;28;4120;-58
2022/12/19 02:11:49;;;;;;;;;;;;;;;19.58;37.39;102138.00;5028478;28;4245;-59
2022/12/19 02:14:16;;;;;;;;;;;;;;;19.58;37.44;102135.88;5027004;28;4547;-58
2022/12/19 02:16:45;;;;;;;;;;;;;;;19.59;37.41;102143.16;5043017;28;4230;-59
2022/12/19 02:19:22;;;;;;;;;;;;;;;19.58;37.46;102130.13;5031551;28;4128;-59
2022/12/19 02:22:07;;;;;;;;;;;;;;;19.58;37.44;102132.25;5017136;28;5532;-57
2022/12/19 02:24:43;;;;;;;;;;;;;;;19.56;37.48;102132.91;5034658;28;4132;-58
2022/12/19 02:27:17;;;;;;;;;;;;;;;19.56;37.50;102127.16;5019325;28;4275;-59
2022/12/19 02:29:49;;;;;;;;;;;;;;;19.57;37.51;102128.63;5013200;28;4700;-58
2022/12/19 02:32:19;;;;;;;;;;;;;;;19.58;37.53;102112.16;5032360;28;4066;-58
2022/12/19 02:46:32;;;;;;;;;;;;;;;19.58;37.60;102112.16;5021262;28;4094;-58
2022/12/19 02:48:59;;;;;;;;;;;;;;;19.56;37.62;102121.41;5014005;28;4174;-58
2022/12/19 02:51:25;;;;;;;;;;;;;;;19.56;37.68;102115.66;5034778;28;4201;-58
2022/12/19 02:53:52;;;;;;;;;;;;;;;19.56;37.73;102112.00;5046030;28;4245;-57
2022/12/19 02:56:37;;;;;;;;;;;;;;;19.55;37.67;102117.00;5029574;28;5418;-58
2022/12/19 02:59:07;;;;;;;;;;;;;;;19.56;37.75;102107.03;5047810;28;4196;-58
2022/12/19 03:01:47;;;;;;;;;;;;;;;19.57;37.58;102104.91;5052006;28;4160;-58
2022/12/19 03:04:15;;;;;;;;;;;;;;;19.59;37.83;102102.19;5045753;28;4229;-59
2022/12/19 03:06:52;;;;;;;;;;;;;;;19.58;37.75;102098.53;5022923;28;4194;-59
2022/12/19 03:09:39;;;;;;;;;;;;;;;19.57;37.73;102111.41;5036179;28;5385;-58
2022/12/19 03:12:07;;;;;;;;;;;;;;;19.59;37.73;102090.69;5046182;28;5578;-58
2022/12/19 03:14:38;;;;;;;;;;;;;;;19.56;37.74;102104.16;5031818;28;5284;-58
2022/12/19 03:17:05;;;;;;;;;;;;;;;19.55;37.82;102102.63;5044577;28;4145;-58
2022/12/19 03:19:32;;;;;;;;;;;;;;;19.55;37.83;102102.63;5041856;28;4874;-58
2022/12/19 03:21:58;;;;;;;;;;;;;;;19.55;37.88;102094.03;5044139;28;4192;-59
2022/12/19 03:24:25;;;;;;;;;;;;;;;19.55;37.75;102090.41;5039902;28;4309;-58
2022/12/19 03:26:57;;;;;;;;;;;;;;;19.56;37.83;102095.53;5039495;28;4211;-59
2022/12/19 03:29:28;;;;;;;;;;;;;;;19.56;37.88;102089.78;5041649;28;4138;-58
2022/12/19 03:31:55;;;;;;;;;;;;;;;19.56;37.82;102081.19;5037665;28;4238;-58
2022/12/19 03:34:23;;;;;;;;;;;;;;;19.58;37.82;102078.41;5027760;28;3945;-58
2022/12/19 03:36:54;;;;;;;;;;;;;;;19.57;37.80;102088.41;5030886;28;4191;-58
2022/12/19 03:39:20;;;;;;;;;;;;;;;19.56;37.73;102092.66;5043970;28;5304;-58
2022/12/19 03:44:32;;;;;;;;;;;;;;;19.55;37.84;102073.91;5030888;28;5841;-58
2022/12/19 03:47:09;;;;;;;;;;;;;;;19.55;37.89;102073.91;5045792;28;4098;-58
2022/12/19 03:49:36;;;;;;;;;;;;;;;19.57;37.89;102068.31;5052841;28;4174;-58
2022/12/19 03:52:20;;;;;;;;;;;;;;;19.57;38.08;102064.69;5030589;28;4547;-59
2022/12/19 03:55:07;;;;;;;;;;;;;;;19.57;37.99;102071.19;5035049;28;3964;-58
2022/12/19 03:57:38;;;;;;;;;;;;;;;19.58;38.14;102072.66;5032220;28;4114;-58
2022/12/19 04:00:06;;;;;;;;;;;;;;;19.60;37.87;102074.94;5034228;28;5498;-58
2022/12/19 04:02:38;;;;;;;;;;;;;;;19.60;38.10;102069.94;5041311;28;5236;-58
2022/12/19 04:05:06;;;;;;;;;;;;;;;19.62;38.33;102072.94;5033832;28;5219;-58
2022/12/19 04:07:32;;;;;;;;;;;;;;;19.62;38.18;102070.09;5028356;28;5364;-58
2022/12/19 04:10:00;;;;;;;;;;;;;;;19.63;38.41;102050.72;5036520;28;4112;-58
2022/12/19 04:12:28;;;;;;;;;;;;;;;19.61;38.42;102048.47;5041699;28;4178;-59
2022/12/19 04:14:54;;;;;;;;;;;;;;;19.64;38.33;102058.72;5047669;28;4126;-57
2022/12/19 04:17:40;;;;;;;;;;;;;;;19.63;38.46;102068.72;5029152;28;4271;-58
2022/12/19 04:20:16;;;;;;;;;;;;;;;19.63;38.46;102068.72;5018270;28;4190;-58
2022/12/19 04:22:50;;;;;;;;;;;;;;;19.62;38.48;102067.22;5030215;28;4319;-58
2022/12/19 04:25:18;;;;;;;;;;;;;;;19.62;38.51;102072.94;5038765;28;4046;-57
2022/12/19 04:27:47;;;;;;;;;;;;;;;19.63;38.53;102070.81;5021981;28;4154;-58
2022/12/19 04:30:14;;;;;;;;;;;;;;;19.62;38.46;102078.69;5033844;28;4142;-58
2022/12/19 04:32:40;;;;;;;;;;;;;;;19.63;38.45;102080.22;5038445;28;4214;-58
2022/12/19 04:35:09;;;;;;;;;;;;;;;19.63;38.53;102080.22;5034609;28;4138;-58
2022/12/19 04:37:35;;;;;;;;;;;;;;;19.62;38.49;102072.94;5029233;28;4335;-58
2022/12/19 04:40:02;;;;;;;;;;;;;;;19.60;38.51;102069.94;5036000;28;6568;-58
2022/12/19 04:42:29;;;;;;;;;;;;;;;19.61;38.44;102065.72;5032142;28;4138;-58
2022/12/19 04:44:55;;;;;;;;;;;;;;;19.61;38.53;102065.72;5030891;28;4113;-58
2022/12/19 04:47:21;;;;;;;;;;;;;;;19.61;38.65;102059.97;5033233;28;5235;-58
2022/12/19 04:49:48;;;;;;;;;;;;;;;19.62;38.56;102060.72;5035700;28;4232;-58
2022/12/19 04:52:14;;;;;;;;;;;;;;;19.62;38.65;102052.84;5044735;28;4146;-58
2022/12/19 04:54:40;;;;;;;;;;;;;;;19.63;38.80;102047.84;5034337;28;4478;-58
2022/12/19 04:57:07;;;;;;;;;;;;;;;19.63;38.91;102045.75;5040519;28;6365;-58
2022/12/19 04:59:33;;;;;;;;;;;;;;;19.64;38.59;102047.22;5030416;28;4124;-58
2022/12/19 05:01:59;;;;;;;;;;;;;;;19.65;38.77;102045.88;5037063;28;4003;-59
2022/12/19 05:04:26;;;;;;;;;;;;;;;19.65;38.86;102043.00;5040772;28;4012;-59
2022/12/19 05:06:52;;;;;;;;;;;;;;;19.66;38.84;102041.63;5034285;28;5603;-58
2022/12/19 05:09:19;;;;;;;;;;;;;;;19.66;38.83;102041.63;5035845;28;4199;-58
2022/12/19 05:11:45;;;;;;;;;;;;;;;19.65;38.86;102043.00;5023506;28;4960;-58
2022/12/19 05:14:11;;;;;;;;;;;;;;;19.64;38.92;102044.34;5028974;28;5446;-58
2022/12/19 05:16:38;;;;;;;;;;;;;;;19.64;38.94;102050.09;5031456;28;4148;-58
2022/12/19 05:19:04;;;;;;;;;;;;;;;19.64;38.73;102041.47;5045915;28;4116;-58
2022/12/19 05:21:30;;;;;;;;;;;;;;;19.64;38.82;102038.63;5034636;28;5463;-58
2022/12/19 05:23:57;;;;;;;;;;;;;;;19.64;38.75;102047.22;5033234;28;4163;-58
2022/12/19 05:26:23;;;;;;;;;;;;;;;19.64;38.75;102035.75;5036453;28;4044;-59
2022/12/19 05:28:49;;;;;;;;;;;;;;;19.63;38.78;102028.50;5045779;28;4240;-60
2022/12/19 05:31:16;;;;;;;;;;;;;;;19.64;38.77;102035.75;5031808;28;5267;-58
2022/12/19 05:33:43;;;;;;;;;;;;;;;19.63;38.81;102034.25;5041935;28;5296;-58
2022/12/19 05:36:09;;;;;;;;;;;;;;;19.63;38.79;102027.72;5036047;28;4168;-59
2022/12/19 05:38:36;;;;;;;;;;;;;;;19.60;38.82;102023.97;5038182;28;4101;-58
2022/12/19 05:41:05;;;;;;;;;;;;;;;19.61;38.76;102014.00;5041394;28;4123;-58
2022/12/19 05:43:32;;;;;;;;;;;;;;;19.60;38.80;102018.22;5049674;28;4889;-58
2022/12/19 05:45:58;;;;;;;;;;;;;;;19.62;38.69;102021.22;5034411;28;4205;-58
2022/12/19 05:48:25;;;;;;;;;;;;;;;19.62;38.69;102006.88;5042237;28;4123;-58
2022/12/19 05:50:51;;;;;;;;;;;;;;;19.63;38.79;102011.25;5040100;28;4021;-59
2022/12/19 05:53:17;;;;;;;;;;;;;;;19.64;38.79;102000.50;5043374;28;3999;-58
2022/12/19 05:55:51;;;;;;;;;;;;;;;19.65;38.88;101997.03;5041904;28;5248;-58
2022/12/19 05:58:17;;;;;;;;;;;;;;;19.65;39.02;102002.78;5040024;28;4115;-58
2022/12/19 06:00:43;;;;;;;;;;;;;;;19.66;38.87;101995.66;5035050;28;4937;-58
2022/12/19 06:03:10;;;;;;;;;;;;;;;19.69;38.92;101992.94;5042783;28;4168;-57
2022/12/19 06:05:37;;;;;;;;;;;;;;;19.67;38.82;101997.13;5034202;28;4036;-57
2022/12/19 06:08:03;;;;;;;;;;;;;;;19.69;38.79;101984.31;5026914;28;4172;-58
2022/12/19 06:10:29;;;;;;;;;;;;;;;19.68;38.87;101972.06;5026967;28;4750;-58
2022/12/19 06:12:56;;;;;;;;;;;;;;;19.66;38.74;101969.03;5037443;28;4059;-58
2022/12/19 06:15:22;;;;;;;;;;;;;;;19.66;38.90;101961.16;5034088;28;4251;-58
2022/12/19 06:17:51;;;;;;;;;;;;;;;19.66;38.84;101966.91;5036155;28;5229;-58
2022/12/19 06:20:17;;;;;;;;;;;;;;;19.67;38.71;101938.91;5035363;28;4106;-57
2022/12/19 06:22:44;;;;;;;;;;;;;;;19.67;38.73;101953.28;5035681;28;5461;-58
2022/12/19 06:25:10;;;;;;;;;;;;;;;19.66;38.71;101952.53;5031942;28;4552;-58
2022/12/19 06:27:39;;;;;;;;;;;;;;;19.66;38.73;101946.78;5039812;28;4136;-58
2022/12/19 06:30:06;;;;;;;;;;;;;;;19.67;38.77;101942.53;5038290;28;5293;-58
2022/12/19 06:32:33;;;;;;;;;;;;;;;19.67;38.73;101931.03;5032078;28;4799;-58
2022/12/19 06:35:03;;;;;;;;;;;;;;;19.60;38.74;101940.63;5023757;28;5447;-63
2022/12/19 06:37:30;;;;;;;;;;;;;;;19.75;38.96;101941.63;5042857;28;4191;-58
2022/12/19 06:39:56;;;;;;;;;;;;;;;19.73;38.83;101955.84;5031363;28;5439;-59
2022/12/19 06:42:25;;;;;;;;;;;;;;;19.80;38.86;101949.13;5038018;28;4093;-65
2022/12/19 06:45:11;;;;;;;;;;;;;;;19.79;38.77;101947.63;5035265;28;4234;-65
2022/12/19 06:47:40;;;;;;;;;;;;;;;19.67;38.79;101951.16;5034669;28;4555;-66
2022/12/19 06:50:06;;;;;;;;;;;;;;;19.67;38.40;101956.91;5032652;28;5314;-69
2022/12/19 06:52:33;;;;;;;;;;;;;;;19.84;38.71;101955.91;5031469;28;4630;-66
2022/12/19 06:54:59;;;;;;;;;;;;;;;19.87;38.69;101948.16;5044070;28;5297;-65
2022/12/19 06:57:25;;;;;;;;;;;;;;;19.82;38.63;101958.66;5044749;28;4184;-66
2022/12/19 06:59:52;;;;;;;;;;;;;;;19.79;38.59;101959.13;5032605;28;4226;-66
2022/12/19 07:02:26;;;;;;;;;;;;;;;19.78;38.35;101969.88;5047266;28;4014;-65
2022/12/19 07:04:56;;;;;;;;;;;;;;;19.79;38.29;101965.63;5054380;28;4972;-66
2022/12/19 07:07:26;;;;;;;;;;;;;;;19.81;38.38;101956.38;5052476;28;4095;-66
2022/12/19 07:09:52;;;;;;;;;;;;;;;19.82;38.43;101960.78;5048676;28;5160;-65
2022/12/19 07:12:21;;;;;;;;;;;;;;;19.84;38.37;101960.91;5041232;28;4122;-66
2022/12/19 07:14:48;;;;;;;;;;;;;;;19.85;38.44;101956.66;5027175;28;4125;-65
2022/12/19 07:17:18;;;;;;;;;;;;;;;19.86;38.47;101958.16;5030832;28;4402;-65
2022/12/19 07:19:45;;;;;;;;;;;;;;;19.88;38.54;101946.78;5042557;28;4279;-66
2022/12/19 07:22:11;;;;;;;;;;;;;;;19.91;39.20;101948.44;5037219;28;5442;-67
2022/12/19 07:24:38;;;;;;;;;;;;;;;20.13;40.46;101945.50;5042033;28;4653;-84
2022/12/19 07:27:07;;;;;;;;;;;;;;;20.30;40.16;101942.31;5050266;28;4505;-83
2022/12/19 07:29:33;;;;;;;;;;;;;;;20.40;39.96;101936.44;5039421;28;4391;-73
2022/12/19 07:32:28;;;;;;;;;;;;;;;20.47;39.71;101938.31;5047561;28;4185;-74
2022/12/19 07:34:55;;;;;;;;;;;;;;;20.51;39.52;101936.44;5037566;28;4442;-81
2022/12/19 07:37:21;;;;;;;;;;;;;;;20.54;39.27;101948.84;5034274;28;4318;-76
2022/12/19 07:39:47;;;;;;;;;;;;;;;20.58;39.42;101945.50;5036024;28;4749;-75
2022/12/19 07:42:14;;;;;;;;;;;;;;;20.57;39.37;101947.63;5037839;28;5436;-75
2022/12/19 07:44:40;;;;;;;;;;;;;;;20.63;39.35;101947.25;5032547;28;4237;-76
2022/12/19 07:47:08;;;;;;;;;;;;;;;20.59;39.31;101930.50;5035049;28;4132;-81
2022/12/19 07:49:34;;;;;;;;;;;;;;;20.62;39.01;101925.63;5040649;28;4230;-83
2022/12/19 07:52:03;;;;;;;;;;;;;;;20.63;39.13;101924.97;5029077;28;5296;-80
2022/12/19 07:54:30;;;;;;;;;;;;;;;20.67;39.13;101922.34;5032701;28;5101;-80
2022/12/19 07:56:59;;;;;;;;;;;;;;;20.76;39.19;101917.13;5032994;28;5128;-79
2022/12/19 07:59:26;;;;;;;;;;;;;;;20.78;39.12;101932.38;5038463;28;4219;-79
2022/12/19 08:01:58;;;;;;;;;;;;;;;20.78;38.46;101923.75;5031225;28;4532;-81
2022/12/19 08:04:25;;;;;;;;;;;;;;;20.79;38.38;101928.09;5034959;28;4334;-78
2022/12/19 08:06:51;;;;;;;;;;;;;;;20.75;38.88;101927.09;5035303;28;4464;-80
2022/12/19 08:09:27;;;;;;;;;;;;;;;20.79;38.49;101925.22;5029942;28;4773;-75
2022/12/19 08:11:54;;;;;;;;;;;;;;;20.81;38.51;101928.25;5038196;28;4152;-76
2022/12/19 08:14:20;;;;;;;;;;;;;;;20.82;38.34;101920.34;5037086;28;4896;-73
2022/12/19 08:16:46;;;;;;;;;;;;;;;20.79;38.67;101922.34;5037874;28;4137;-74
2022/12/19 08:19:33;;;;;;;;;;;;;;;20.82;38.62;101915.34;5040307;28;5354;-76
2022/12/19 08:21:59;;;;;;;;;;;;;;;20.90;38.67;101904.31;5027750;28;4884;-75
2022/12/19 08:24:25;;;;;;;;;;;;;;;20.96;38.82;101911.81;5036165;28;4202;-73
2022/12/19 08:26:52;;;;;;;;;;;;;;;21.05;38.77;101908.06;5033502;28;5311;-74
2022/12/19 08:29:18;;;;;;;;;;;;;;;21.02;38.81;101920.84;5039038;28;3966;-78
2022/12/19 08:31:44;;;;;;;;;;;;;;;21.01;38.72;101913.59;5040167;28;4107;-74
2022/12/19 08:34:11;;;;;;;;;;;;;;;21.05;38.83;101928.22;5030865;28;5394;-75
2022/12/19 08:36:38;;;;;;;;;;;;;;;21.07;38.94;101906.06;5028595;28;4562;-75
2022/12/19 08:39:04;;;;;;;;;;;;;;;21.11;38.83;101911.31;5037197;28;5185;-78
2022/12/19 08:41:31;;;;;;;;;;;;;;;21.13;38.82;101908.56;5034662;28;4191;-78
2022/12/19 08:43:57;;;;;;;;;;;;;;;21.18;38.88;101898.03;5032560;28;4135;-77
2022/12/19 08:46:24;;;;;;;;;;;;;;;21.17;38.84;101891.53;5030414;28;4040;-84
2022/12/19 08:48:54;;;;;;;;;;;;;;;21.16;38.88;101881.38;5031891;28;4148;-76
2022/12/19 08:51:29;;;;;;;;;;;;;;;21.23;38.91;101868.81;5034109;28;4592;-78
2022/12/19 08:53:57;;;;;;;;;;;;;;;21.21;38.97;101862.97;5040037;28;5196;-75
2022/12/19 08:56:26;;;;;;;;;;;;;;;21.24;38.97;101867.44;5035697;28;4086;-76
2022/12/19 08:58:54;;;;;;;;;;;;;;;21.21;38.93;101868.72;5029786;28;5548;-74
2022/12/19 09:01:22;;;;;;;;;;;;;;;21.21;38.88;101851.44;5025851;28;5292;-73
2022/12/19 09:03:49;;;;;;;;;;;;;;;21.20;39.00;101861.44;5029605;28;4129;-72
2022/12/19 09:06:35;;;;;;;;;;;;;;;21.21;38.94;101856.44;5032253;28;4196;-74
2022/12/19 09:09:02;;;;;;;;;;;;;;;21.22;38.93;101858.69;5029861;28;4318;-74
2022/12/19 09:11:29;;;;;;;;;;;;;;;21.23;39.00;101860.19;5035874;28;4027;-73
2022/12/19 09:13:55;;;;;;;;;;;;;;;21.24;39.05;101849.41;5027080;28;4627;-73
2022/12/19 09:16:28;;;;;;;;;;;;;;;21.24;38.95;101850.16;5031794;28;5466;-75
2022/12/19 09:18:55;;;;;;;;;;;;;;;21.30;38.96;101841.88;5026210;28;4535;-76
2022/12/19 09:21:22;;;;;;;;;;;;;;;21.30;38.92;101841.88;5020619;28;5396;-76
2022/12/19 09:23:49;;;;;;;;;;;;;;;21.28;38.84;101836.00;5026503;28;4349;-74
2022/12/19 09:26:15;;;;;;;;;;;;;;;21.28;38.65;101832.34;5031880;28;3986;-71
2022/12/19 09:28:42;;;;;;;;;;;;;;;21.27;38.81;101830.88;5029195;28;4512;-75
2022/12/19 09:31:09;;;;;;;;;;;;;;;21.30;39.46;101823.84;5036487;28;4123;-78
2022/12/19 09:33:36;;;;;;;;;;;;;;;21.32;39.38;101826.84;5035575;28;4181;-74
2022/12/19 09:36:10;;;;;;;;;;;;;;;20.81;33.53;101824.59;5031409;28;4167;-70
2022/12/19 09:38:44;;;;;;;;;;;;;;;19.98;34.99;101820.22;5034393;28;4168;-71
2022/12/19 09:41:19;;;;;;;;;;;;;;;20.25;32.65;101816.88;5030055;28;4202;-70
2022/12/19 09:44:04;;;;;;;;;;;;;;;20.46;33.51;101805.22;5036707;28;4186;-72
2022/12/19 09:46:30;;;;;;;;;;;;;;;20.59;33.68;101795.25;5029213;28;5083;-71
2022/12/19 09:48:57;;;;;;;;;;;;;;;20.66;34.47;101781.94;5033966;28;4373;-71
2022/12/19 09:51:31;;;;;;;;;;;;;;;20.71;34.84;101783.72;5032180;28;4517;-72
2022/12/19 09:54:04;;;;;;;;;;;;;;;20.74;35.21;101781.69;5036888;28;4231;-71
2022/12/19 09:56:31;;;;;;;;;;;;;;;20.76;35.56;101773.94;5029488;28;4108;-72
2022/12/19 09:59:27;;;;;;;;;;;;;;;20.78;35.85;101773.31;5030524;28;4107;-72
2022/12/19 10:02:17;;;;;;;;;;;;;;;20.79;36.10;101766.91;5035773;28;4184;-70
2022/12/19 10:04:46;;;;;;;;;;;;;;;20.80;36.67;101774.19;5024335;28;4153;-71
2022/12/19 10:07:17;;;;;;;;;;;;;;;20.79;36.34;101766.91;5034897;28;5429;-71
2022/12/19 10:10:08;;;;;;;;;;;;;;;20.79;36.58;101758.28;5030598;28;5287;-71
2022/12/19 10:13:02;;;;;;;;;;;;;;;20.77;36.84;101758.16;5037948;28;5258;-71
2022/12/19 10:15:51;;;;;;;;;;;;;;;20.76;37.13;101756.66;5026208;28;4197;-73
2022/12/19 10:18:44;;;;;;;;;;;;;;;20.70;37.63;101753.41;5040806;28;4118;-73
2022/12/19 10:21:20;;;;;;;;;;;;;;;20.82;37.83;101741.88;5033368;28;4001;-72
2022/12/19 10:24:16;;;;;;;;;;;;;;;20.83;37.76;101754.88;5027981;28;4148;-75
2022/12/19 10:26:45;;;;;;;;;;;;;;;20.95;37.70;101741.19;5022694;28;4150;-79
2022/12/19 10:29:34;;;;;;;;;;;;;;;21.05;37.55;101746.78;5037131;28;4107;-74
2022/12/19 10:32:09;;;;;;;;;;;;;;;21.11;37.64;101726.97;5035379;28;4150;-79
2022/12/19 10:34:39;;;;;;;;;;;;;;;21.16;37.80;101734.47;5032714;28;4027;-73
2022/12/19 10:37:36;;;;;;;;;;;;;;;21.18;37.87;101725.94;5040769;28;4172;-74
2022/12/19 10:40:26;;;;;;;;;;;;;;;21.20;38.00;101714.53;5035465;28;4123;-80
2022/12/19 10:42:56;;;;;;;;;;;;;;;21.23;38.19;101709.63;5030862;28;4167;-80
2022/12/19 10:45:24;;;;;;;;;;;;;;;21.24;38.01;101709.00;5043703;28;4153;-74
2022/12/19 10:47:53;;;;;;;;;;;;;;;21.25;38.28;101704.75;5034147;28;4183;-75
2022/12/19 10:50:20;;;;;;;;;;;;;;;21.24;38.37;101702.50;5026565;28;5082;-74
2022/12/19 10:52:55;;;;;;;;;;;;;;;21.27;38.29;101692.59;5042129;28;4200;-77
2022/12/19 10:55:25;;;;;;;;;;;;;;;21.30;38.45;101683.44;5046798;28;4120;-77
2022/12/19 10:57:51;;;;;;;;;;;;;;;21.32;38.24;101677.75;5044084;28;4272;-75
2022/12/19 11:00:18;;;;;;;;;;;;;;;21.34;38.34;101680.75;5043328;28;4203;-77
2022/12/19 11:02:46;;;;;;;;;;;;;;;21.36;38.26;101676.50;5025412;28;4197;-74
2022/12/19 11:05:22;;;;;;;;;;;;;;;21.36;38.44;101673.63;5035111;28;4194;-76
2022/12/19 11:07:59;;;;;;;;;;;;;;;21.39;38.28;101673.09;5032669;28;4967;-76
2022/12/19 11:10:34;;;;;;;;;;;;;;;21.42;38.43;101674.00;5045598;28;4242;-76
2022/12/19 11:13:22;;;;;;;;;;;;;;;21.43;38.31;101661.06;5041284;28;4115;-75
2022/12/19 11:16:08;;;;;;;;;;;;;;;21.46;38.33;101656.91;5040262;28;4153;-75
2022/12/19 11:18:55;;;;;;;;;;;;;;;21.45;38.41;101656.16;5037108;28;5189;-76
2022/12/19 11:21:41;;;;;;;;;;;;;;;21.46;38.37;101654.03;5038932;28;4361;-73
2022/12/19 11:24:34;;;;;;;;;;;;;;;21.33;37.85;101656.22;5035312;28;4127;-70
2022/12/19 11:27:39;;;;;;;;;;;;;;;21.21;38.15;101655.56;5044001;28;7463;-80
2022/12/19 11:30:25;;;;;;;;;;;;;;;21.37;38.17;101655.69;5041461;28;4242;-68
2022/12/19 11:33:12;;;;;;;;;;;;;;;21.49;37.92;101655.66;5034685;28;4167;-70
2022/12/19 11:35:49;;;;;;;;;;;;;;;21.41;37.55;101655.94;5039038;28;4140;-72
2022/12/19 11:38:16;;;;;;;;;;;;;;;21.24;37.75;101653.53;5035746;28;5178;-76
2022/12/19 11:41:05;;;;;;;;;;;;;;;21.20;38.41;101654.06;5051166;28;4197;-78
2022/12/19 11:43:51;;;;;;;;;;;;;;;21.29;38.26;101647.34;5044943;28;4126;-72
2022/12/19 11:46:35;;;;;;;;;;;;;;;21.26;38.15;101634.22;5040107;28;4117;-72
2022/12/19 11:49:08;;;;;;;;;;;;;;;21.17;38.59;101643.06;5037154;28;4176;-72
2022/12/19 11:51:40;;;;;;;;;;;;;;;21.50;39.24;101631.19;5043772;28;4008;-72
2022/12/19 11:54:17;;;;;;;;;;;;;;;21.61;38.66;101626.75;5046351;28;4197;-73
2022/12/19 11:56:44;;;;;;;;;;;;;;;21.67;38.54;101622.03;5046698;28;4028;-73
2022/12/19 11:59:20;;;;;;;;;;;;;;;21.69;38.31;101613.50;5043535;28;4369;-73
2022/12/19 12:02:05;;;;;;;;;;;;;;;21.69;38.76;101610.63;5053400;28;4091;-73
2022/12/19 12:04:36;;;;;;;;;;;;;;;21.70;38.78;101612.09;5047594;28;3961;-73
2022/12/19 12:07:03;;;;;;;;;;;;;;;21.70;38.63;101612.09;5047025;28;4473;-73
2022/12/19 12:09:58;;;;;;;;;;;;;;;21.72;38.69;101599.94;5036254;28;4189;-76
2022/12/19 12:12:55;;;;;;;;;;;;;;;21.71;38.44;101612.84;5040847;28;4323;-72
2022/12/19 12:16:01;;;;;;;;;;;;;;;21.74;38.92;101602.94;5045836;28;4231;-73
2022/12/19 12:18:51;;;;;;;;;;;;;;;21.77;39.25;101600.91;5045062;28;5403;-74
2022/12/19 12:21:56;;;;;;;;;;;;;;;21.79;39.29;101606.78;5060517;28;4280;-74
2022/12/19 12:24:47;;;;;;;;;;;;;;;21.84;39.14;101605.59;5049701;28;4117;-75
2022/12/19 12:27:36;;;;;;;;;;;;;;;21.84;38.55;101614.25;5043343;28;4209;-72
2022/12/19 12:30:23;;;;;;;;;;;;;;;21.80;39.35;101603.25;5034354;28;4138;-75
2022/12/19 12:33:19;;;;;;;;;;;;;;;21.80;39.31;101597.47;5046946;28;4086;-77
2022/12/19 12:36:08;;;;;;;;;;;;;;;21.92;39.46;101598.13;5046627;28;3961;-74
2022/12/19 12:39:13;;;;;;;;;;;;;;;21.94;38.97;101601.13;5053630;28;5076;-75
2022/12/19 12:42:02;;;;;;;;;;;;;;;21.90;39.30;101586.47;5049376;28;4062;-76
2022/12/19 12:44:33;;;;;;;;;;;;;;;21.88;39.28;101577.72;5045180;28;4059;-79
2022/12/19 12:47:05;;;;;;;;;;;;;;;21.88;39.66;101582.75;5045003;28;4697;-77
2022/12/19 12:49:37;;;;;;;;;;;;;;;21.89;39.68;101582.09;5039148;28;4067;-76
2022/12/19 12:52:05;;;;;;;;;;;;;;;21.95;39.52;101570.13;5034240;28;4250;-74
2022/12/19 12:54:33;;;;;;;;;;;;;;;21.95;39.18;101576.66;5038159;28;4350;-73
2022/12/19 12:56:59;;;;;;;;;;;;;;;21.92;39.30;101577.16;5037325;28;4227;-72
2022/12/19 12:59:26;;;;;;;;;;;;;;;21.93;39.54;101567.88;5041571;28;4180;-74
2022/12/19 13:01:53;;;;;;;;;;;;;;;21.94;39.60;101557.84;5037361;28;5193;-73
2022/12/19 13:04:24;;;;;;;;;;;;;;;21.93;39.74;101559.22;5030854;28;5262;-73
2022/12/19 13:06:50;;;;;;;;;;;;;;;21.98;39.40;101554.41;5034647;28;5406;-72
2022/12/19 13:09:16;;;;;;;;;;;;;;;22.15;39.88;101547.31;5036890;28;5184;-75
2022/12/19 13:14:34;;;;;;;;;;;;;;;22.31;39.00;101542.41;5033576;28;4143;-76
2022/12/19 13:17:01;;;;;;;;;;;;;;;22.31;39.08;101532.97;5037098;28;5345;-76
2022/12/19 13:19:28;;;;;;;;;;;;;;;22.29;39.14;101541.56;5040564;28;5273;-76
2022/12/19 13:22:03;;;;;;;;;;;;;;;22.28;39.20;101540.78;5043315;28;5443;-75
2022/12/19 13:24:36;;;;;;;;;;;;;;;22.30;39.56;101543.03;5045770;28;3999;-73
2022/12/19 13:27:03;;;;;;;;;;;;;;;22.35;39.64;101533.19;5041426;28;4074;-75
2022/12/19 13:29:31;;;;;;;;;;;;;;;22.37;39.63;101534.03;5043226;28;5248;-71